Impacts TAF Board
For situational awareness. Not to be used for flight planning purposes.
IDs:

KJFK - New York/Kennedy Int, NY, US

Issued at 2339 UTC 18 Feb 2019
Updated at 0223 UTC 19 Feb 2019
Potential Impact None Slight Moderate High
Time0151Z 19/03Z 19/04Z 19/05Z 19/06Z 19/07Z 19/08Z 19/09Z 19/10Z 19/11Z 19/12Z 19/13Z 19/14Z 19/15Z>>
Type OBS PRVL PRVL PRVL PRVL PRVL PRVL PRVL PRVL PRVL PRVL PRVL PRVL PRVL
VIS 10 >6 >6 >6 >6 >6 >6 >6 >6 >6 >6 >6 >6 >6
CIG -- -- -- -- -- -- -- -- -- -- -- -- -- --
Cover SCT SCT SKC SKC SKC SKC SKC SKC SKC SKC FEW FEW FEW FEW
FltCat VFR VFR VFR VFR VFR VFR VFR VFR VFR VFR VFR VFR VFR VFR
WX -- -- -- -- -- -- -- -- -- -- -- -- -- --
WDir 310 310 320 320 320 320 320 320 320 320 330 330 330 330
WSpd 17 21 16 16 16 16 16 13 13 13 11 11 11 11
WGst 26 30 23 23 23 23 23 -- -- -- -- -- -- --
Raw TAF
KJFK 182339Z 1900/2006 31021G30KT P6SM SCT045
  FM190400 32016G23KT P6SM SKC
  FM190900 32013KT P6SM SKC
  FM191200 33011KT P6SM FEW250
  FM191800 31011KT P6SM FEW030
  FM200200 34008KT P6SM SKC


Raw METAR
KJFK 190151Z 31017G26KT 10SM FEW043 SCT250 M01/M09 A3024 RMK AO2 PK WND 31026/0149 SLP240 T10111094 $
KJFK 190051Z 31016G26KT 10SM FEW043 SCT250 M01/M08 A3020 RMK AO2 PK WND 32032/2359 SLP227 T10061083 $
KJFK 182351Z 32023G35KT 10SM FEW043 SCT250 00/M08 A3015 RMK AO2 PK WND 31036/2323 PRESRR SLP209 60000 T00001078 10061 20000 53074 $

METAR Board
Radar Display
Forecast Discussion
For situational awareness. Not to be used for flight planning purposes.